sensor_id;sensor_type;location;lat;lon;timestamp;temperature;humidity
4501;DHT22;2263;54.654;9.410;2023-02-15T00:01:15;3.60;94.50
4501;DHT22;2263;54.654;9.410;2023-02-15T00:03:59;3.60;94.60
4501;DHT22;2263;54.654;9.410;2023-02-15T00:06:44;3.60;94.70
4501;DHT22;2263;54.654;9.410;2023-02-15T00:09:28;3.60;94.50
4501;DHT22;2263;54.654;9.410;2023-02-15T00:12:14;3.50;94.50
4501;DHT22;2263;54.654;9.410;2023-02-15T00:14:59;3.50;94.50
4501;DHT22;2263;54.654;9.410;2023-02-15T00:17:46;3.50;94.50
4501;DHT22;2263;54.654;9.410;2023-02-15T00:20:31;3.50;94.40
4501;DHT22;2263;54.654;9.410;2023-02-15T00:23:15;3.50;94.40
4501;DHT22;2263;54.654;9.410;2023-02-15T00:26:10;3.50;94.40
4501;DHT22;2263;54.654;9.410;2023-02-15T00:28:55;3.40;94.30
4501;DHT22;2263;54.654;9.410;2023-02-15T00:31:40;3.40;94.40
4501;DHT22;2263;54.654;9.410;2023-02-15T00:34:26;3.40;94.40
4501;DHT22;2263;54.654;9.410;2023-02-15T00:37:10;3.40;94.50
4501;DHT22;2263;54.654;9.410;2023-02-15T00:39:55;3.40;94.40
4501;DHT22;2263;54.654;9.410;2023-02-15T00:42:39;3.40;94.40
4501;DHT22;2263;54.654;9.410;2023-02-15T00:45:23;3.30;94.40
4501;DHT22;2263;54.654;9.410;2023-02-15T00:48:08;3.30;94.40
4501;DHT22;2263;54.654;9.410;2023-02-15T00:50:55;3.30;94.40
4501;DHT22;2263;54.654;9.410;2023-02-15T00:53:39;3.30;94.40
4501;DHT22;2263;54.654;9.410;2023-02-15T00:56:29;3.30;94.40
4501;DHT22;2263;54.654;9.410;2023-02-15T00:59:14;3.30;94.30
4501;DHT22;2263;54.654;9.410;2023-02-15T01:01:58;3.30;94.40
4501;DHT22;2263;54.654;9.410;2023-02-15T01:04:42;3.20;94.30
4501;DHT22;2263;54.654;9.410;2023-02-15T01:07:27;3.20;94.30
4501;DHT22;2263;54.654;9.410;2023-02-15T01:10:11;3.20;94.20
4501;DHT22;2263;54.654;9.410;2023-02-15T01:12:56;3.20;94.30
4501;DHT22;2263;54.654;9.410;2023-02-15T01:15:41;3.20;94.40
4501;DHT22;2263;54.654;9.410;2023-02-15T01:18:26;3.10;94.30
4501;DHT22;2263;54.654;9.410;2023-02-15T01:21:19;3.10;94.40
4501;DHT22;2263;54.654;9.410;2023-02-15T01:24:03;3.10;94.30
4501;DHT22;2263;54.654;9.410;2023-02-15T01:26:48;3.10;94.30
4501;DHT22;2263;54.654;9.410;2023-02-15T01:29:32;3.10;94.40
4501;DHT22;2263;54.654;9.410;2023-02-15T01:32:17;3.10;94.30
4501;DHT22;2263;54.654;9.410;2023-02-15T01:35:03;3.10;94.20
4501;DHT22;2263;54.654;9.410;2023-02-15T01:37:47;3.10;94.30
4501;DHT22;2263;54.654;9.410;2023-02-15T01:40:31;3.10;94.40
4501;DHT22;2263;54.654;9.410;2023-02-15T01:43:16;3.00;94.20
4501;DHT22;2263;54.654;9.410;2023-02-15T01:46:00;3.00;94.30
4501;DHT22;2263;54.654;9.410;2023-02-15T01:48:48;3.00;94.30
4501;DHT22;2263;54.654;9.410;2023-02-15T01:51:35;3.00;94.30
4501;DHT22;2263;54.654;9.410;2023-02-15T01:54:25;3.00;94.20
4501;DHT22;2263;54.654;9.410;2023-02-15T01:57:15;3.00;94.30
4501;DHT22;2263;54.654;9.410;2023-02-15T02:00:04;2.90;94.30
4501;DHT22;2263;54.654;9.410;2023-02-15T02:02:53;2.90;94.20
4501;DHT22;2263;54.654;9.410;2023-02-15T02:05:39;2.90;94.30
4501;DHT22;2263;54.654;9.410;2023-02-15T02:08:24;2.90;94.40
4501;DHT22;2263;54.654;9.410;2023-02-15T02:11:13;2.90;94.20
4501;DHT22;2263;54.654;9.410;2023-02-15T02:13:58;2.90;94.30
4501;DHT22;2263;54.654;9.410;2023-02-15T02:28:59;2.80;94.30
4501;DHT22;2263;54.654;9.410;2023-02-15T02:32:14;2.80;94.30
4501;DHT22;2263;54.654;9.410;2023-02-15T02:41:24;2.70;94.30
4501;DHT22;2263;54.654;9.410;2023-02-15T02:44:34;2.70;94.30
4501;DHT22;2263;54.654;9.410;2023-02-15T02:50:28;2.70;94.20
4501;DHT22;2263;54.654;9.410;2023-02-15T02:53:13;2.60;94.30
4501;DHT22;2263;54.654;9.410;2023-02-15T02:56:11;2.60;94.30
4501;DHT22;2263;54.654;9.410;2023-02-15T03:02:29;2.60;94.40
4501;DHT22;2263;54.654;9.410;2023-02-15T03:05:19;2.60;94.40
4501;DHT22;2263;54.654;9.410;2023-02-15T03:08:06;2.60;94.40
4501;DHT22;2263;54.654;9.410;2023-02-15T03:10:55;2.60;94.40
4501;DHT22;2263;54.654;9.410;2023-02-15T03:13:41;2.60;94.40
4501;DHT22;2263;54.654;9.410;2023-02-15T03:16:26;2.60;94.40
4501;DHT22;2263;54.654;9.410;2023-02-15T03:19:15;2.60;94.50
4501;DHT22;2263;54.654;9.410;2023-02-15T03:22:13;2.60;94.50
4501;DHT22;2263;54.654;9.410;2023-02-15T03:25:20;2.60;94.50
4501;DHT22;2263;54.654;9.410;2023-02-15T03:28:09;2.60;94.70
4501;DHT22;2263;54.654;9.410;2023-02-15T03:30:58;2.60;94.60
4501;DHT22;2263;54.654;9.410;2023-02-15T03:33:55;2.60;94.60
4501;DHT22;2263;54.654;9.410;2023-02-15T03:42:38;2.60;94.70
4501;DHT22;2263;54.654;9.410;2023-02-15T03:45:26;2.60;94.70
4501;DHT22;2263;54.654;9.410;2023-02-15T03:48:12;2.60;94.80
4501;DHT22;2263;54.654;9.410;2023-02-15T03:51:02;2.60;94.70
4501;DHT22;2263;54.654;9.410;2023-02-15T03:54:30;2.60;94.80
4501;DHT22;2263;54.654;9.410;2023-02-15T03:57:28;2.60;94.80
4501;DHT22;2263;54.654;9.410;2023-02-15T04:00:35;2.60;94.80
4501;DHT22;2263;54.654;9.410;2023-02-15T04:03:45;2.60;94.90
4501;DHT22;2263;54.654;9.410;2023-02-15T04:06:31;2.60;94.90
4501;DHT22;2263;54.654;9.410;2023-02-15T04:09:16;2.50;94.90
4501;DHT22;2263;54.654;9.410;2023-02-15T04:12:19;2.50;95.00
4501;DHT22;2263;54.654;9.410;2023-02-15T04:15:04;2.50;95.00
4501;DHT22;2263;54.654;9.410;2023-02-15T04:18:07;2.50;95.10
4501;DHT22;2263;54.654;9.410;2023-02-15T04:20:51;2.50;95.00
4501;DHT22;2263;54.654;9.410;2023-02-15T04:23:55;2.50;95.20
4501;DHT22;2263;54.654;9.410;2023-02-15T04:26:59;2.50;95.10
4501;DHT22;2263;54.654;9.410;2023-02-15T04:29:44;2.50;95.20
4501;DHT22;2263;54.654;9.410;2023-02-15T04:32:28;2.50;95.20
4501;DHT22;2263;54.654;9.410;2023-02-15T04:35:14;2.50;95.20
4501;DHT22;2263;54.654;9.410;2023-02-15T04:37:58;2.50;95.20
4501;DHT22;2263;54.654;9.410;2023-02-15T04:40:42;2.50;95.30
4501;DHT22;2263;54.654;9.410;2023-02-15T04:43:27;2.50;95.40
4501;DHT22;2263;54.654;9.410;2023-02-15T04:46:11;2.50;95.30
4501;DHT22;2263;54.654;9.410;2023-02-15T04:48:57;2.50;95.30
4501;DHT22;2263;54.654;9.410;2023-02-15T04:51:41;2.50;95.40
4501;DHT22;2263;54.654;9.410;2023-02-15T04:54:26;2.50;95.50
4501;DHT22;2263;54.654;9.410;2023-02-15T04:57:10;2.50;95.50
4501;DHT22;2263;54.654;9.410;2023-02-15T04:59:55;2.50;95.50
4501;DHT22;2263;54.654;9.410;2023-02-15T05:02:39;2.50;95.50
4501;DHT22;2263;54.654;9.410;2023-02-15T05:05:24;2.50;95.50
4501;DHT22;2263;54.654;9.410;2023-02-15T05:08:08;2.50;95.50
4501;DHT22;2263;54.654;9.410;2023-02-15T05:10:53;2.50;95.60
4501;DHT22;2263;54.654;9.410;2023-02-15T05:13:37;2.40;95.50
4501;DHT22;2263;54.654;9.410;2023-02-15T05:16:22;2.40;95.50
4501;DHT22;2263;54.654;9.410;2023-02-15T05:19:06;2.40;95.60
4501;DHT22;2263;54.654;9.410;2023-02-15T05:21:50;2.40;95.50
4501;DHT22;2263;54.654;9.410;2023-02-15T05:24:35;2.40;95.50
4501;DHT22;2263;54.654;9.410;2023-02-15T05:27:38;2.40;95.50
4501;DHT22;2263;54.654;9.410;2023-02-15T05:30:41;2.40;95.60
4501;DHT22;2263;54.654;9.410;2023-02-15T05:33:26;2.40;95.60
4501;DHT22;2263;54.654;9.410;2023-02-15T05:36:11;2.40;95.60
4501;DHT22;2263;54.654;9.410;2023-02-15T05:38:56;2.40;95.70
4501;DHT22;2263;54.654;9.410;2023-02-15T05:41:40;2.40;95.70
4501;DHT22;2263;54.654;9.410;2023-02-15T05:44:24;2.40;95.60
4501;DHT22;2263;54.654;9.410;2023-02-15T05:47:09;2.40;95.60
4501;DHT22;2263;54.654;9.410;2023-02-15T05:49:53;2.40;95.80
4501;DHT22;2263;54.654;9.410;2023-02-15T05:52:38;2.40;95.70
4501;DHT22;2263;54.654;9.410;2023-02-15T05:55:22;2.40;95.70
4501;DHT22;2263;54.654;9.410;2023-02-15T05:58:07;2.40;95.80
4501;DHT22;2263;54.654;9.410;2023-02-15T06:00:51;2.40;95.70
4501;DHT22;2263;54.654;9.410;2023-02-15T06:03:36;2.40;95.80
4501;DHT22;2263;54.654;9.410;2023-02-15T06:06:20;2.30;95.70
4501;DHT22;2263;54.654;9.410;2023-02-15T06:09:05;2.30;95.70
4501;DHT22;2263;54.654;9.410;2023-02-15T06:11:49;2.30;95.70
4501;DHT22;2263;54.654;9.410;2023-02-15T06:14:34;2.10;95.80
4501;DHT22;2263;54.654;9.410;2023-02-15T06:17:18;2.10;96.20
4501;DHT22;2263;54.654;9.410;2023-02-15T06:20:05;2.20;96.20
4501;DHT22;2263;54.654;9.410;2023-02-15T06:22:49;2.20;96.00
4501;DHT22;2263;54.654;9.410;2023-02-15T06:25:34;2.20;96.00
4501;DHT22;2263;54.654;9.410;2023-02-15T06:28:18;2.30;96.00
4501;DHT22;2263;54.654;9.410;2023-02-15T06:31:03;2.30;96.00
4501;DHT22;2263;54.654;9.410;2023-02-15T06:33:48;2.30;96.00
4501;DHT22;2263;54.654;9.410;2023-02-15T06:36:32;2.30;95.90
4501;DHT22;2263;54.654;9.410;2023-02-15T06:39:17;2.30;96.00
4501;DHT22;2263;54.654;9.410;2023-02-15T06:42:01;2.30;96.00
4501;DHT22;2263;54.654;9.410;2023-02-15T06:44:46;2.30;96.00
4501;DHT22;2263;54.654;9.410;2023-02-15T06:47:30;2.30;95.90
4501;DHT22;2263;54.654;9.410;2023-02-15T06:50:15;2.30;96.00
4501;DHT22;2263;54.654;9.410;2023-02-15T06:52:59;2.30;95.90
4501;DHT22;2263;54.654;9.410;2023-02-15T06:55:44;2.30;96.00
4501;DHT22;2263;54.654;9.410;2023-02-15T06:58:29;2.30;96.00
4501;DHT22;2263;54.654;9.410;2023-02-15T07:01:13;2.30;96.00
4501;DHT22;2263;54.654;9.410;2023-02-15T07:03:58;2.30;96.00
4501;DHT22;2263;54.654;9.410;2023-02-15T07:06:42;2.30;96.00
4501;DHT22;2263;54.654;9.410;2023-02-15T07:09:27;2.30;96.00
4501;DHT22;2263;54.654;9.410;2023-02-15T07:12:11;2.30;96.00
4501;DHT22;2263;54.654;9.410;2023-02-15T07:15:17;2.30;96.00
4501;DHT22;2263;54.654;9.410;2023-02-15T07:18:01;2.30;96.00
4501;DHT22;2263;54.654;9.410;2023-02-15T07:20:46;2.30;96.10
4501;DHT22;2263;54.654;9.410;2023-02-15T07:23:31;2.30;96.10
4501;DHT22;2263;54.654;9.410;2023-02-15T07:26:15;2.30;96.10
4501;DHT22;2263;54.654;9.410;2023-02-15T07:29:00;2.30;96.00
4501;DHT22;2263;54.654;9.410;2023-02-15T07:31:45;2.30;96.10
4501;DHT22;2263;54.654;9.410;2023-02-15T07:34:29;2.30;96.00
4501;DHT22;2263;54.654;9.410;2023-02-15T07:37:13;2.30;96.10
4501;DHT22;2263;54.654;9.410;2023-02-15T07:39:58;2.40;96.20
4501;DHT22;2263;54.654;9.410;2023-02-15T07:42:42;2.30;96.10
4501;DHT22;2263;54.654;9.410;2023-02-15T07:45:26;2.30;96.10
4501;DHT22;2263;54.654;9.410;2023-02-15T07:48:11;2.40;96.20
4501;DHT22;2263;54.654;9.410;2023-02-15T07:51:04;2.30;96.20
4501;DHT22;2263;54.654;9.410;2023-02-15T07:53:49;2.30;96.20
4501;DHT22;2263;54.654;9.410;2023-02-15T07:56:35;2.30;96.20
4501;DHT22;2263;54.654;9.410;2023-02-15T07:59:20;2.30;96.10
4501;DHT22;2263;54.654;9.410;2023-02-15T08:02:09;2.30;96.20
4501;DHT22;2263;54.654;9.410;2023-02-15T08:04:54;2.30;96.20
4501;DHT22;2263;54.654;9.410;2023-02-15T08:07:39;2.30;96.30
4501;DHT22;2263;54.654;9.410;2023-02-15T08:10:23;2.40;96.30
4501;DHT22;2263;54.654;9.410;2023-02-15T08:13:28;2.40;96.20
4501;DHT22;2263;54.654;9.410;2023-02-15T08:16:12;2.40;96.30
4501;DHT22;2263;54.654;9.410;2023-02-15T08:18:58;2.40;96.30
4501;DHT22;2263;54.654;9.410;2023-02-15T08:21:45;2.40;96.30
4501;DHT22;2263;54.654;9.410;2023-02-15T08:24:32;2.30;96.40
4501;DHT22;2263;54.654;9.410;2023-02-15T08:27:16;2.40;96.40
4501;DHT22;2263;54.654;9.410;2023-02-15T08:30:01;2.40;96.60
4501;DHT22;2263;54.654;9.410;2023-02-15T08:32:45;2.40;96.40
4501;DHT22;2263;54.654;9.410;2023-02-15T08:35:30;2.40;96.40
4501;DHT22;2263;54.654;9.410;2023-02-15T08:38:15;2.40;96.40
4501;DHT22;2263;54.654;9.410;2023-02-15T08:44:06;2.40;96.40
4501;DHT22;2263;54.654;9.410;2023-02-15T08:46:50;2.40;96.40
4501;DHT22;2263;54.654;9.410;2023-02-15T08:49:35;2.40;96.50
4501;DHT22;2263;54.654;9.410;2023-02-15T08:52:19;2.40;96.50
4501;DHT22;2263;54.654;9.410;2023-02-15T08:55:04;2.40;96.50
4501;DHT22;2263;54.654;9.410;2023-02-15T08:57:49;2.40;96.50
4501;DHT22;2263;54.654;9.410;2023-02-15T09:00:33;2.40;96.50
4501;DHT22;2263;54.654;9.410;2023-02-15T09:03:18;2.40;96.50
4501;DHT22;2263;54.654;9.410;2023-02-15T09:06:02;2.40;96.50
4501;DHT22;2263;54.654;9.410;2023-02-15T09:08:46;2.40;96.50
4501;DHT22;2263;54.654;9.410;2023-02-15T09:11:38;2.40;96.50
4501;DHT22;2263;54.654;9.410;2023-02-15T09:14:22;2.40;96.60
4501;DHT22;2263;54.654;9.410;2023-02-15T09:17:09;2.40;96.60
4501;DHT22;2263;54.654;9.410;2023-02-15T09:19:53;2.40;96.60
4501;DHT22;2263;54.654;9.410;2023-02-15T09:22:38;2.40;96.60
4501;DHT22;2263;54.654;9.410;2023-02-15T09:25:22;2.40;96.70
4501;DHT22;2263;54.654;9.410;2023-02-15T09:28:07;2.40;96.70
4501;DHT22;2263;54.654;9.410;2023-02-15T09:30:51;2.40;96.60
4501;DHT22;2263;54.654;9.410;2023-02-15T09:33:38;2.40;96.70
4501;DHT22;2263;54.654;9.410;2023-02-15T09:36:27;2.40;96.70
4501;DHT22;2263;54.654;9.410;2023-02-15T09:39:17;2.40;96.80
4501;DHT22;2263;54.654;9.410;2023-02-15T09:57:08;2.50;96.90
4501;DHT22;2263;54.654;9.410;2023-02-15T10:06:32;2.50;96.90
4501;DHT22;2263;54.654;9.410;2023-02-15T10:15:19;2.50;97.00
4501;DHT22;2263;54.654;9.410;2023-02-15T10:26:58;2.50;97.10
4501;DHT22;2263;54.654;9.410;2023-02-15T10:30:10;2.60;97.10
4501;DHT22;2263;54.654;9.410;2023-02-15T10:33:03;2.60;97.10
4501;DHT22;2263;54.654;9.410;2023-02-15T10:45:06;2.60;97.20
4501;DHT22;2263;54.654;9.410;2023-02-15T11:00:41;2.60;97.30
4501;DHT22;2263;54.654;9.410;2023-02-15T11:03:33;2.70;97.50
4501;DHT22;2263;54.654;9.410;2023-02-15T11:06:20;2.60;97.30
4501;DHT22;2263;54.654;9.410;2023-02-15T11:09:10;2.70;97.50
4501;DHT22;2263;54.654;9.410;2023-02-15T11:11:57;2.70;97.50
4501;DHT22;2263;54.654;9.410;2023-02-15T11:15:15;2.70;97.50
4501;DHT22;2263;54.654;9.410;2023-02-15T11:18:13;2.70;97.50
4501;DHT22;2263;54.654;9.410;2023-02-15T11:21:22;2.70;97.60
4501;DHT22;2263;54.654;9.410;2023-02-15T11:24:12;2.70;97.80
4501;DHT22;2263;54.654;9.410;2023-02-15T11:27:02;2.70;97.70
4501;DHT22;2263;54.654;9.410;2023-02-15T11:32:43;2.70;97.50
4501;DHT22;2263;54.654;9.410;2023-02-15T11:35:43;2.80;97.80
4501;DHT22;2263;54.654;9.410;2023-02-15T11:38:34;2.80;97.70
4501;DHT22;2263;54.654;9.410;2023-02-15T11:41:24;2.80;97.80
4501;DHT22;2263;54.654;9.410;2023-02-15T11:44:19;2.80;97.80
4501;DHT22;2263;54.654;9.410;2023-02-15T11:47:10;2.80;97.90
4501;DHT22;2263;54.654;9.410;2023-02-15T11:49:57;2.80;97.90
4501;DHT22;2263;54.654;9.410;2023-02-15T11:52:41;2.80;98.00
4501;DHT22;2263;54.654;9.410;2023-02-15T11:55:27;2.80;98.10
4501;DHT22;2263;54.654;9.410;2023-02-15T12:01:28;2.80;98.00
4501;DHT22;2263;54.654;9.410;2023-02-15T12:04:29;2.90;98.20
4501;DHT22;2263;54.654;9.410;2023-02-15T12:10:44;2.90;98.20
4501;DHT22;2263;54.654;9.410;2023-02-15T12:13:32;2.90;98.30
4501;DHT22;2263;54.654;9.410;2023-02-15T12:16:17;2.90;98.30
4501;DHT22;2263;54.654;9.410;2023-02-15T12:19:02;2.90;98.30
4501;DHT22;2263;54.654;9.410;2023-02-15T12:21:49;2.90;98.50
4501;DHT22;2263;54.654;9.410;2023-02-15T12:24:38;2.90;98.50
4501;DHT22;2263;54.654;9.410;2023-02-15T12:27:30;2.90;98.50
4501;DHT22;2263;54.654;9.410;2023-02-15T12:30:32;3.00;98.80
4501;DHT22;2263;54.654;9.410;2023-02-15T12:33:42;3.00;98.70
4501;DHT22;2263;54.654;9.410;2023-02-15T12:36:32;3.00;98.70
4501;DHT22;2263;54.654;9.410;2023-02-15T12:39:31;3.00;98.50
4501;DHT22;2263;54.654;9.410;2023-02-15T12:42:16;3.00;98.60
4501;DHT22;2263;54.654;9.410;2023-02-15T12:45:04;3.00;98.70
4501;DHT22;2263;54.654;9.410;2023-02-15T12:48:16;3.00;99.20
4501;DHT22;2263;54.654;9.410;2023-02-15T12:51:08;3.00;98.70
4501;DHT22;2263;54.654;9.410;2023-02-15T12:53:52;3.00;98.80
4501;DHT22;2263;54.654;9.410;2023-02-15T12:56:37;3.00;99.00
4501;DHT22;2263;54.654;9.410;2023-02-15T12:59:22;3.00;99.20
4501;DHT22;2263;54.654;9.410;2023-02-15T13:02:09;3.10;99.10
4501;DHT22;2263;54.654;9.410;2023-02-15T13:08:03;3.10;99.10
4501;DHT22;2263;54.654;9.410;2023-02-15T13:11:04;3.10;99.30
4501;DHT22;2263;54.654;9.410;2023-02-15T13:13:54;3.10;99.30
4501;DHT22;2263;54.654;9.410;2023-02-15T13:16:39;3.10;99.50
4501;DHT22;2263;54.654;9.410;2023-02-15T13:19:52;3.10;99.80
4501;DHT22;2263;54.654;9.410;2023-02-15T13:22:41;3.10;99.50
4501;DHT22;2263;54.654;9.410;2023-02-15T13:25:29;3.20;99.40
4501;DHT22;2263;54.654;9.410;2023-02-15T13:28:17;3.10;99.60
4501;DHT22;2263;54.654;9.410;2023-02-15T13:31:02;3.20;99.80
4501;DHT22;2263;54.654;9.410;2023-02-15T13:33:51;3.20;99.90
4501;DHT22;2263;54.654;9.410;2023-02-15T13:46:20;3.20;99.90
4501;DHT22;2263;54.654;9.410;2023-02-15T13:49:39;3.20;99.90
4501;DHT22;2263;54.654;9.410;2023-02-15T13:52:28;3.20;99.90
4501;DHT22;2263;54.654;9.410;2023-02-15T13:58:30;3.20;99.90
4501;DHT22;2263;54.654;9.410;2023-02-15T14:01:39;3.20;99.90
4501;DHT22;2263;54.654;9.410;2023-02-15T14:05:36;3.20;99.90
4501;DHT22;2263;54.654;9.410;2023-02-15T14:11:12;3.30;99.90
4501;DHT22;2263;54.654;9.410;2023-02-15T14:14:28;3.30;99.90
4501;DHT22;2263;54.654;9.410;2023-02-15T14:20:51;3.30;99.90
4501;DHT22;2263;54.654;9.410;2023-02-15T14:29:47;3.30;99.90
4501;DHT22;2263;54.654;9.410;2023-02-15T14:32:42;3.30;99.90
4501;DHT22;2263;54.654;9.410;2023-02-15T14:35:30;3.30;99.90
4501;DHT22;2263;54.654;9.410;2023-02-15T14:41:40;3.30;99.90
4501;DHT22;2263;54.654;9.410;2023-02-15T14:44:36;3.30;99.90
4501;DHT22;2263;54.654;9.410;2023-02-15T14:47:27;3.30;99.90
4501;DHT22;2263;54.654;9.410;2023-02-15T14:56:16;3.40;99.90
4501;DHT22;2263;54.654;9.410;2023-02-15T14:59:22;3.40;99.90
4501;DHT22;2263;54.654;9.410;2023-02-15T15:07:47;3.40;99.90
4501;DHT22;2263;54.654;9.410;2023-02-15T15:10:39;3.40;99.90
4501;DHT22;2263;54.654;9.410;2023-02-15T15:22:31;3.40;99.90
4501;DHT22;2263;54.654;9.410;2023-02-15T15:31:50;3.50;99.90
4501;DHT22;2263;54.654;9.410;2023-02-15T15:50:00;3.50;99.90
4501;DHT22;2263;54.654;9.410;2023-02-15T15:52:50;3.50;99.90
4501;DHT22;2263;54.654;9.410;2023-02-15T15:55:35;3.50;99.90
4501;DHT22;2263;54.654;9.410;2023-02-15T15:58:20;3.50;99.90
4501;DHT22;2263;54.654;9.410;2023-02-15T16:01:10;3.50;99.90
4501;DHT22;2263;54.654;9.410;2023-02-15T16:03:58;3.50;99.90
4501;DHT22;2263;54.654;9.410;2023-02-15T16:06:43;3.50;99.90
4501;DHT22;2263;54.654;9.410;2023-02-15T16:09:28;3.50;99.90
4501;DHT22;2263;54.654;9.410;2023-02-15T16:12:14;3.50;99.90
4501;DHT22;2263;54.654;9.410;2023-02-15T16:15:41;3.50;99.90
4501;DHT22;2263;54.654;9.410;2023-02-15T16:18:28;3.50;99.90
4501;DHT22;2263;54.654;9.410;2023-02-15T16:21:29;3.60;99.90
4501;DHT22;2263;54.654;9.410;2023-02-15T16:30:22;4.00;99.90
4501;DHT22;2263;54.654;9.410;2023-02-15T16:33:12;4.20;99.90
4501;DHT22;2263;54.654;9.410;2023-02-15T16:35:59;4.30;99.90
4501;DHT22;2263;54.654;9.410;2023-02-15T16:41:31;4.40;99.90
4501;DHT22;2263;54.654;9.410;2023-02-15T16:44:20;4.50;99.90
4501;DHT22;2263;54.654;9.410;2023-02-15T16:47:12;4.50;99.90
4501;DHT22;2263;54.654;9.410;2023-02-15T16:50:01;4.60;99.90
4501;DHT22;2263;54.654;9.410;2023-02-15T16:52:47;4.60;99.90
4501;DHT22;2263;54.654;9.410;2023-02-15T16:55:38;4.70;99.90
4501;DHT22;2263;54.654;9.410;2023-02-15T16:58:43;4.70;99.90
4501;DHT22;2263;54.654;9.410;2023-02-15T17:01:30;4.70;99.90
4501;DHT22;2263;54.654;9.410;2023-02-15T17:04:26;4.70;99.90
4501;DHT22;2263;54.654;9.410;2023-02-15T17:07:20;4.70;99.90
4501;DHT22;2263;54.654;9.410;2023-02-15T17:13:16;4.70;99.90
4501;DHT22;2263;54.654;9.410;2023-02-15T17:18:45;4.70;99.90
4501;DHT22;2263;54.654;9.410;2023-02-15T17:21:37;4.80;99.90
4501;DHT22;2263;54.654;9.410;2023-02-15T17:27:25;4.80;99.90
4501;DHT22;2263;54.654;9.410;2023-02-15T17:30:17;4.70;99.90
4501;DHT22;2263;54.654;9.410;2023-02-15T17:33:21;4.80;99.90
4501;DHT22;2263;54.654;9.410;2023-02-15T17:41:43;4.80;99.90
4501;DHT22;2263;54.654;9.410;2023-02-15T17:44:28;4.80;99.90
4501;DHT22;2263;54.654;9.410;2023-02-15T17:47:21;4.80;99.90
4501;DHT22;2263;54.654;9.410;2023-02-15T17:50:14;4.80;99.90
4501;DHT22;2263;54.654;9.410;2023-02-15T17:53:00;4.80;99.90
4501;DHT22;2263;54.654;9.410;2023-02-15T17:55:45;4.80;99.90
4501;DHT22;2263;54.654;9.410;2023-02-15T17:58:29;4.80;99.90
4501;DHT22;2263;54.654;9.410;2023-02-15T18:01:17;4.80;99.90
4501;DHT22;2263;54.654;9.410;2023-02-15T18:04:22;4.80;99.90
4501;DHT22;2263;54.654;9.410;2023-02-15T18:07:25;4.80;99.90
4501;DHT22;2263;54.654;9.410;2023-02-15T18:10:28;4.80;99.90
4501;DHT22;2263;54.654;9.410;2023-02-15T18:13:32;4.80;99.90
4501;DHT22;2263;54.654;9.410;2023-02-15T18:16:20;4.90;99.90
4501;DHT22;2263;54.654;9.410;2023-02-15T18:19:10;4.80;99.90
4501;DHT22;2263;54.654;9.410;2023-02-15T18:21:57;4.80;99.90
4501;DHT22;2263;54.654;9.410;2023-02-15T18:24:42;4.90;99.90
4501;DHT22;2263;54.654;9.410;2023-02-15T18:27:27;4.90;99.90
4501;DHT22;2263;54.654;9.410;2023-02-15T18:30:17;4.80;99.90
4501;DHT22;2263;54.654;9.410;2023-02-15T18:33:03;4.90;99.90
4501;DHT22;2263;54.654;9.410;2023-02-15T18:35:47;4.90;99.90
4501;DHT22;2263;54.654;9.410;2023-02-15T18:38:34;4.90;99.90
4501;DHT22;2263;54.654;9.410;2023-02-15T18:41:20;4.90;99.90
4501;DHT22;2263;54.654;9.410;2023-02-15T18:44:10;4.90;99.90
4501;DHT22;2263;54.654;9.410;2023-02-15T18:46:55;4.90;99.90
4501;DHT22;2263;54.654;9.410;2023-02-15T18:49:39;4.90;99.90
4501;DHT22;2263;54.654;9.410;2023-02-15T18:52:27;4.90;99.90
4501;DHT22;2263;54.654;9.410;2023-02-15T18:55:20;4.90;99.90
4501;DHT22;2263;54.654;9.410;2023-02-15T18:58:13;4.90;99.80
4501;DHT22;2263;54.654;9.410;2023-02-15T19:00:58;4.90;99.80
4501;DHT22;2263;54.654;9.410;2023-02-15T19:03:45;4.80;99.80
4501;DHT22;2263;54.654;9.410;2023-02-15T19:06:30;4.80;99.80
4501;DHT22;2263;54.654;9.410;2023-02-15T19:09:18;4.90;99.80
4501;DHT22;2263;54.654;9.410;2023-02-15T19:12:07;4.90;99.80
4501;DHT22;2263;54.654;9.410;2023-02-15T19:14:55;4.90;99.80
4501;DHT22;2263;54.654;9.410;2023-02-15T19:17:41;4.80;99.70
4501;DHT22;2263;54.654;9.410;2023-02-15T19:20:32;4.90;99.80
4501;DHT22;2263;54.654;9.410;2023-02-15T19:23:20;4.90;99.70
4501;DHT22;2263;54.654;9.410;2023-02-15T19:26:07;4.90;99.80
4501;DHT22;2263;54.654;9.410;2023-02-15T19:28:51;4.90;99.70
4501;DHT22;2263;54.654;9.410;2023-02-15T19:31:36;4.90;99.70
4501;DHT22;2263;54.654;9.410;2023-02-15T19:34:21;4.90;99.70
4501;DHT22;2263;54.654;9.410;2023-02-15T19:37:06;4.90;99.70
4501;DHT22;2263;54.654;9.410;2023-02-15T19:39:59;4.90;99.70
4501;DHT22;2263;54.654;9.410;2023-02-15T19:42:48;4.80;99.60
4501;DHT22;2263;54.654;9.410;2023-02-15T19:45:33;4.80;99.60
4501;DHT22;2263;54.654;9.410;2023-02-15T19:48:18;4.80;99.60
4501;DHT22;2263;54.654;9.410;2023-02-15T19:51:03;4.80;99.60
4501;DHT22;2263;54.654;9.410;2023-02-15T19:53:48;4.80;99.60
4501;DHT22;2263;54.654;9.410;2023-02-15T19:56:33;4.80;99.60
4501;DHT22;2263;54.654;9.410;2023-02-15T20:02:10;4.80;99.60
4501;DHT22;2263;54.654;9.410;2023-02-15T20:04:55;4.80;99.60
4501;DHT22;2263;54.654;9.410;2023-02-15T20:07:43;4.80;99.60
4501;DHT22;2263;54.654;9.410;2023-02-15T20:10:30;4.80;99.60
4501;DHT22;2263;54.654;9.410;2023-02-15T20:13:17;4.80;99.50
4501;DHT22;2263;54.654;9.410;2023-02-15T20:16:02;4.80;99.50
4501;DHT22;2263;54.654;9.410;2023-02-15T20:18:51;4.80;99.50
4501;DHT22;2263;54.654;9.410;2023-02-15T20:21:35;4.80;99.50
4501;DHT22;2263;54.654;9.410;2023-02-15T20:24:21;4.80;99.50
4501;DHT22;2263;54.654;9.410;2023-02-15T20:27:15;4.80;99.50
4501;DHT22;2263;54.654;9.410;2023-02-15T20:30:00;4.80;99.50
4501;DHT22;2263;54.654;9.410;2023-02-15T20:32:44;4.80;99.50
4501;DHT22;2263;54.654;9.410;2023-02-15T20:35:29;4.80;99.50
4501;DHT22;2263;54.654;9.410;2023-02-15T20:38:27;4.80;99.50
4501;DHT22;2263;54.654;9.410;2023-02-15T20:41:14;4.80;99.80
4501;DHT22;2263;54.654;9.410;2023-02-15T20:44:24;4.80;99.50
4501;DHT22;2263;54.654;9.410;2023-02-15T20:47:09;4.80;99.50
4501;DHT22;2263;54.654;9.410;2023-02-15T20:49:53;4.80;99.50
4501;DHT22;2263;54.654;9.410;2023-02-15T20:52:38;4.80;99.50
4501;DHT22;2263;54.654;9.410;2023-02-15T20:55:28;4.80;99.50
4501;DHT22;2263;54.654;9.410;2023-02-15T20:58:28;4.80;99.40
4501;DHT22;2263;54.654;9.410;2023-02-15T21:01:12;4.80;99.40
4501;DHT22;2263;54.654;9.410;2023-02-15T21:03:57;4.80;99.40
4501;DHT22;2263;54.654;9.410;2023-02-15T21:06:42;4.70;99.40
4501;DHT22;2263;54.654;9.410;2023-02-15T21:09:26;4.70;99.40
4501;DHT22;2263;54.654;9.410;2023-02-15T21:12:16;4.80;99.40
4501;DHT22;2263;54.654;9.410;2023-02-15T21:15:01;4.80;99.40
4501;DHT22;2263;54.654;9.410;2023-02-15T21:17:45;4.80;99.40
4501;DHT22;2263;54.654;9.410;2023-02-15T21:20:30;4.70;99.30
4501;DHT22;2263;54.654;9.410;2023-02-15T21:23:17;4.70;99.30
4501;DHT22;2263;54.654;9.410;2023-02-15T21:26:04;4.70;99.30
4501;DHT22;2263;54.654;9.410;2023-02-15T21:28:49;4.70;99.40
4501;DHT22;2263;54.654;9.410;2023-02-15T21:31:33;4.70;99.40
4501;DHT22;2263;54.654;9.410;2023-02-15T21:34:18;4.70;99.30
4501;DHT22;2263;54.654;9.410;2023-02-15T21:37:03;4.70;99.30
4501;DHT22;2263;54.654;9.410;2023-02-15T21:39:48;4.70;99.30
4501;DHT22;2263;54.654;9.410;2023-02-15T21:42:32;4.70;99.30
4501;DHT22;2263;54.654;9.410;2023-02-15T21:45:36;4.70;99.30
4501;DHT22;2263;54.654;9.410;2023-02-15T21:48:58;4.70;99.30
4501;DHT22;2263;54.654;9.410;2023-02-15T21:51:44;4.70;99.30
4501;DHT22;2263;54.654;9.410;2023-02-15T21:54:47;4.70;99.30
4501;DHT22;2263;54.654;9.410;2023-02-15T21:57:32;4.70;99.20
4501;DHT22;2263;54.654;9.410;2023-02-15T22:00:19;4.70;99.30
4501;DHT22;2263;54.654;9.410;2023-02-15T22:03:04;4.70;99.20